createdAt,value
2023-02-20T00:00:18.217Z,8.40
2023-02-20T00:01:18.216Z,8.42
2023-02-20T00:02:18.224Z,8.40
2023-02-20T00:03:18.223Z,8.34
2023-02-20T00:04:18.188Z,8.29
2023-02-20T00:05:18.160Z,8.32
2023-02-20T00:18:00.266Z,7.67
2023-02-20T00:19:00.238Z,7.55
2023-02-20T00:20:00.260Z,7.58
2023-02-20T00:21:00.242Z,7.48
2023-02-20T00:22:00.292Z,7.48
2023-02-20T00:23:00.221Z,7.45
2023-02-20T00:24:00.192Z,7.34
2023-02-20T00:25:00.187Z,7.24
2023-02-20T00:26:00.172Z,7.27
2023-02-20T00:27:00.190Z,7.21
2023-02-20T00:28:00.169Z,7.26
2023-02-20T00:29:00.140Z,7.21
2023-02-20T00:30:00.156Z,7.26
2023-02-20T00:31:00.262Z,7.15
2023-02-20T00:32:00.257Z,6.94
2023-02-20T00:33:00.116Z,6.97
2023-02-20T00:34:00.119Z,6.83
2023-02-20T00:35:00.094Z,6.86
2023-02-20T00:36:00.082Z,6.79
2023-02-20T00:37:00.103Z,6.69
2023-02-20T00:38:00.086Z,6.61
2023-02-20T00:39:00.070Z,6.60
2023-02-20T00:40:00.040Z,6.48
2023-02-20T00:41:00.023Z,6.27
2023-02-20T00:42:00.019Z,6.19
2023-02-20T00:43:00.020Z,6.19
2023-02-20T00:43:59.992Z,6.20
2023-02-20T00:44:59.984Z,6.14
2023-02-20T00:46:00.008Z,5.99
2023-02-20T00:46:59.984Z,5.99
2023-02-20T00:47:59.947Z,5.90
2023-02-20T00:48:59.939Z,5.75
2023-02-20T00:49:59.908Z,5.83
2023-02-20T00:50:59.912Z,5.75
2023-02-20T00:52:00.127Z,5.77
2023-02-20T00:52:59.904Z,5.73
2023-02-20T00:53:59.875Z,5.69
2023-02-20T00:54:59.886Z,5.62
2023-02-20T00:55:59.845Z,5.66
2023-02-20T00:56:59.860Z,5.55
2023-02-20T00:57:59.849Z,5.41
2023-02-20T00:58:59.830Z,5.48
2023-02-20T00:59:59.841Z,5.42
2023-02-20T01:00:59.796Z,5.35
2023-02-20T01:01:59.817Z,5.32
2023-02-20T01:02:59.834Z,5.32
2023-02-20T01:03:59.783Z,5.35
2023-02-20T01:04:59.755Z,5.40
2023-02-20T01:05:59.759Z,5.38
2023-02-20T01:06:59.755Z,5.44
2023-02-20T01:07:59.739Z,5.40
2023-02-20T01:08:59.744Z,5.23
2023-02-20T01:09:59.721Z,5.08
2023-02-20T01:10:59.698Z,4.97
2023-02-20T01:11:59.709Z,4.84
2023-02-20T01:12:59.718Z,4.83
2023-02-20T01:13:59.676Z,4.83
2023-02-20T01:14:59.643Z,4.90
2023-02-20T01:15:59.698Z,4.90
2023-02-20T01:16:59.652Z,5.15
2023-02-20T01:17:59.617Z,5.22
2023-02-20T01:18:59.619Z,5.11
2023-02-20T01:19:59.599Z,5.08
2023-02-20T01:20:59.581Z,5.08
2023-02-20T01:21:59.621Z,5.12
2023-02-20T01:22:59.559Z,5.15
2023-02-20T01:23:59.551Z,5.19
2023-02-20T01:24:59.552Z,5.11
2023-02-20T01:25:59.524Z,5.09
2023-02-20T01:26:59.532Z,5.20
2023-02-20T01:27:59.528Z,5.51
2023-02-20T01:28:59.524Z,5.65
2023-02-20T01:29:59.512Z,5.70
2023-02-20T01:30:59.524Z,5.81
2023-02-20T01:31:59.678Z,5.88
2023-02-20T01:32:59.448Z,5.92
2023-02-20T01:33:59.452Z,6.02
2023-02-20T01:34:59.437Z,6.08
2023-02-20T01:35:59.415Z,6.01
2023-02-20T01:36:59.517Z,6.01
2023-02-20T01:37:59.400Z,6.08
2023-02-20T01:38:59.389Z,6.13
2023-02-20T01:39:59.381Z,6.08
2023-02-20T01:40:59.443Z,5.96
2023-02-20T01:41:59.372Z,6.03
2023-02-20T01:42:59.351Z,5.96
2023-02-20T01:43:59.361Z,6.01
2023-02-20T01:44:59.320Z,5.98
2023-02-20T01:45:59.427Z,5.96
2023-02-20T01:46:59.434Z,5.90
2023-02-20T01:47:59.297Z,5.83
2023-02-20T01:48:59.294Z,5.78
2023-02-20T01:49:59.278Z,5.78
2023-02-20T01:50:59.269Z,5.95
2023-02-20T01:51:59.258Z,6.16
2023-02-20T01:52:59.250Z,6.11
2023-02-20T01:53:59.259Z,6.08
2023-02-20T01:54:59.232Z,6.01
2023-02-20T01:55:59.221Z,6.24
2023-02-20T01:56:59.231Z,6.46
2023-02-20T01:57:59.189Z,6.55
2023-02-20T01:58:59.192Z,6.58
2023-02-20T01:59:59.161Z,6.69
2023-02-20T02:00:59.255Z,6.64
2023-02-20T02:01:59.194Z,6.58
2023-02-20T02:02:59.143Z,6.50
2023-02-20T02:03:59.130Z,6.36
2023-02-20T02:04:59.231Z,6.19
2023-02-20T02:05:59.145Z,6.01
2023-02-20T02:06:59.114Z,5.92
2023-02-20T02:07:59.111Z,5.78
2023-02-20T02:08:59.076Z,5.69
2023-02-20T02:09:59.067Z,5.59
2023-02-20T02:10:59.048Z,5.48
2023-02-20T02:11:59.064Z,5.33
2023-02-20T02:12:59.072Z,5.32
2023-02-20T02:13:59.003Z,5.35
2023-02-20T02:14:59.018Z,5.19
2023-02-20T02:15:59.012Z,5.12
2023-02-20T02:16:59.001Z,5.14
2023-02-20T02:17:59.004Z,5.24
2023-02-20T02:18:58.955Z,5.33
2023-02-20T02:19:58.956Z,5.40
2023-02-20T02:20:58.933Z,5.38
2023-02-20T02:21:58.974Z,5.52
2023-02-20T02:22:58.910Z,5.38
2023-02-20T02:23:58.918Z,5.27
2023-02-20T02:24:58.887Z,5.15
2023-02-20T02:25:58.885Z,5.04
2023-02-20T02:26:58.904Z,5.22
2023-02-20T02:27:58.863Z,5.38
2023-02-20T02:28:58.849Z,5.27
2023-02-20T02:29:58.835Z,5.29
2023-02-20T02:30:58.841Z,5.12
2023-02-20T02:31:58.899Z,4.96
2023-02-20T02:32:58.841Z,4.93
2023-02-20T02:33:58.796Z,4.97
2023-02-20T02:34:58.783Z,4.87
2023-02-20T02:35:58.760Z,4.79
2023-02-20T02:36:58.773Z,4.65
2023-02-20T02:37:58.764Z,4.64
2023-02-20T02:38:58.756Z,4.49
2023-02-20T02:39:58.745Z,4.46
2023-02-20T02:40:58.737Z,4.35
2023-02-20T02:41:58.745Z,4.28
2023-02-20T02:42:58.718Z,4.16
2023-02-20T02:43:58.675Z,4.08
2023-02-20T02:44:58.677Z,3.99
2023-02-20T02:45:58.737Z,3.98
2023-02-20T02:46:58.672Z,3.98
2023-02-20T02:47:58.632Z,3.90
2023-02-20T02:48:58.638Z,3.81
2023-02-20T02:49:58.637Z,3.72
2023-02-20T02:50:58.623Z,3.64
2023-02-20T02:51:58.639Z,3.62
2023-02-20T02:52:58.591Z,3.54
2023-02-20T02:53:58.572Z,3.54
2023-02-20T02:54:58.575Z,3.49
2023-02-20T02:55:58.552Z,3.45
2023-02-20T02:56:58.557Z,3.41
2023-02-20T02:57:58.550Z,3.31
2023-02-20T02:58:58.519Z,3.41
2023-02-20T02:59:58.504Z,3.31
2023-02-20T03:00:58.542Z,3.23
2023-02-20T03:01:58.498Z,3.15
2023-02-20T03:02:58.487Z,3.08
2023-02-20T03:03:58.491Z,3.23
2023-02-20T03:04:58.458Z,3.12
2023-02-20T03:05:58.441Z,3.08
2023-02-20T03:06:58.479Z,2.99
2023-02-20T03:07:58.437Z,3.17
2023-02-20T03:08:58.435Z,3.15
2023-02-20T03:09:58.405Z,3.15
2023-02-20T03:10:58.419Z,3.07
2023-02-20T03:11:58.414Z,3.07
2023-02-20T03:12:58.388Z,3.01
2023-02-20T03:13:58.354Z,2.97
2023-02-20T03:14:58.356Z,2.90
2023-02-20T03:15:58.338Z,2.90
2023-02-20T03:16:58.445Z,2.90
2023-02-20T03:17:58.318Z,2.84
2023-02-20T03:18:58.306Z,2.95
2023-02-20T03:19:58.346Z,2.86
2023-02-20T03:20:58.280Z,2.90
2023-02-20T03:21:58.309Z,2.66
2023-02-20T03:22:58.288Z,2.74
2023-02-20T03:23:58.277Z,2.68
2023-02-20T03:24:58.281Z,2.86
2023-02-20T03:25:58.284Z,3.17
2023-02-20T03:26:58.251Z,3.50
2023-02-20T03:27:58.214Z,3.59
2023-02-20T03:28:58.236Z,3.46
2023-02-20T03:29:58.196Z,3.23
2023-02-20T03:30:58.185Z,3.13
2023-02-20T03:31:58.366Z,3.22
2023-02-20T03:32:58.175Z,3.10
2023-02-20T03:33:58.206Z,3.08
2023-02-20T03:34:58.137Z,3.05
2023-02-20T03:35:58.140Z,2.94
2023-02-20T03:36:58.140Z,2.90
2023-02-20T03:37:58.134Z,2.77
2023-02-20T03:38:58.116Z,2.73
2023-02-20T03:39:58.081Z,2.69
2023-02-20T03:40:58.119Z,2.61
2023-02-20T03:41:58.087Z,2.56
2023-02-20T03:42:58.068Z,2.66
2023-02-20T03:43:58.047Z,2.56
2023-02-20T03:44:58.045Z,2.53
2023-02-20T03:45:58.092Z,2.51
2023-02-20T03:46:58.099Z,2.53
2023-02-20T03:47:58.038Z,2.84
2023-02-20T03:48:58.013Z,3.22
2023-02-20T03:49:57.988Z,3.54
2023-02-20T03:50:57.989Z,3.59
2023-02-20T03:51:57.978Z,3.42
2023-02-20T03:52:57.963Z,3.37
2023-02-20T03:53:57.938Z,3.20
2023-02-20T03:54:57.952Z,3.07
2023-02-20T03:55:57.935Z,2.94
2023-02-20T03:56:57.916Z,2.84
2023-02-20T03:57:57.890Z,2.76
2023-02-20T03:58:57.897Z,2.81
2023-02-20T03:59:57.883Z,2.83
2023-02-20T04:00:57.894Z,2.79
2023-02-20T04:01:58.067Z,2.81
2023-02-20T04:02:57.857Z,2.81
2023-02-20T04:03:57.862Z,2.66
2023-02-20T04:04:57.828Z,2.68
2023-02-20T04:05:57.814Z,2.79
2023-02-20T04:06:57.833Z,2.76
2023-02-20T04:07:57.819Z,2.76
2023-02-20T04:08:57.776Z,2.74
2023-02-20T04:09:57.778Z,2.62
2023-02-20T04:10:57.777Z,2.68
2023-02-20T04:11:57.789Z,2.63
2023-02-20T04:12:57.748Z,2.71
2023-02-20T04:13:57.734Z,2.89
2023-02-20T04:14:57.732Z,3.05
2023-02-20T04:15:57.715Z,3.41
2023-02-20T04:16:57.788Z,3.53
2023-02-20T04:17:57.758Z,3.60
2023-02-20T04:18:57.699Z,3.68
2023-02-20T04:19:57.691Z,3.68
2023-02-20T04:20:57.649Z,3.63
2023-02-20T04:21:57.652Z,3.75
2023-02-20T04:22:57.634Z,3.98
2023-02-20T04:23:57.622Z,4.06
2023-02-20T04:24:57.639Z,3.67
2023-02-20T04:25:57.621Z,3.44
2023-02-20T04:26:57.617Z,3.22
2023-02-20T04:27:57.575Z,3.12
2023-02-20T04:28:57.580Z,3.08
2023-02-20T04:29:57.564Z,2.94
2023-02-20T04:30:57.640Z,2.84
2023-02-20T04:31:57.663Z,2.80
2023-02-20T04:32:57.546Z,2.77
2023-02-20T04:33:57.519Z,2.77
2023-02-20T04:34:57.530Z,2.76
2023-02-20T04:35:57.488Z,2.63
2023-02-20T04:36:57.517Z,2.66
2023-02-20T04:37:57.473Z,2.53
2023-02-20T04:38:57.472Z,2.59
2023-02-20T04:39:57.442Z,2.47
2023-02-20T04:40:57.452Z,2.37
2023-02-20T04:41:57.464Z,2.41
2023-02-20T04:42:57.495Z,2.41
2023-02-20T04:43:57.422Z,2.25
2023-02-20T04:44:57.402Z,2.15
2023-02-20T04:45:57.445Z,2.04
2023-02-20T04:46:57.396Z,2.05
2023-02-20T04:47:57.365Z,2.02
2023-02-20T04:48:57.349Z,1.90
2023-02-20T04:49:57.354Z,1.98
2023-02-20T04:50:57.370Z,1.85
2023-02-20T04:51:57.355Z,1.83
2023-02-20T04:52:57.316Z,1.79
2023-02-20T04:53:57.325Z,1.68
2023-02-20T04:54:57.333Z,1.67
2023-02-20T04:55:57.311Z,1.56
2023-02-20T04:56:57.320Z,1.52
2023-02-20T04:57:57.256Z,1.68
2023-02-20T04:58:57.248Z,1.95
2023-02-20T04:59:57.274Z,2.25
2023-02-20T05:00:57.272Z,2.32
2023-02-20T05:01:57.259Z,2.32
2023-02-20T05:02:57.215Z,2.25
2023-02-20T05:03:57.192Z,2.02
2023-02-20T05:04:57.230Z,1.95
2023-02-20T05:05:57.165Z,2.04
2023-02-20T05:06:57.198Z,2.00
2023-02-20T05:07:57.182Z,2.01
2023-02-20T05:08:57.152Z,1.95
2023-02-20T05:09:57.151Z,1.95
2023-02-20T05:10:57.123Z,1.90
2023-02-20T05:11:57.122Z,1.75
2023-02-20T05:12:57.109Z,1.68
2023-02-20T05:13:57.105Z,1.64
2023-02-20T05:14:57.091Z,1.89
2023-02-20T05:15:57.128Z,2.01
2023-02-20T05:16:57.074Z,1.86
2023-02-20T05:17:57.046Z,1.61
2023-02-20T05:18:57.052Z,1.49
2023-02-20T05:19:57.099Z,1.49
2023-02-20T05:20:57.021Z,1.46
2023-02-20T05:21:57.015Z,1.32
2023-02-20T05:22:57.019Z,1.26
2023-02-20T05:23:57.001Z,1.31
2023-02-20T05:24:56.998Z,1.29
2023-02-20T05:25:56.961Z,1.26
2023-02-20T05:26:56.970Z,1.24
2023-02-20T05:27:56.949Z,1.25
2023-02-20T05:28:56.960Z,1.42
2023-02-20T05:29:56.933Z,1.39
2023-02-20T05:30:56.987Z,1.44
2023-02-20T05:31:57.002Z,1.46
2023-02-20T05:32:56.924Z,1.42
2023-02-20T05:33:56.893Z,1.56
2023-02-20T05:34:56.899Z,1.56
2023-02-20T05:35:56.847Z,1.61
2023-02-20T05:36:56.866Z,1.54
2023-02-20T05:37:56.831Z,1.63
2023-02-20T05:38:56.835Z,1.61
2023-02-20T05:39:56.842Z,1.61
2023-02-20T05:40:56.847Z,1.61
2023-02-20T05:41:56.822Z,1.53
2023-02-20T05:42:56.781Z,1.67
2023-02-20T05:43:56.800Z,1.75
2023-02-20T05:44:56.768Z,1.75
2023-02-20T05:45:56.790Z,1.64
2023-02-20T05:46:56.748Z,1.61
2023-02-20T05:47:56.736Z,1.54
2023-02-20T05:48:56.707Z,1.54
2023-02-20T05:49:56.711Z,1.43
2023-02-20T05:50:56.701Z,1.46
2023-02-20T05:51:56.749Z,1.44
2023-02-20T05:52:56.687Z,1.35
2023-02-20T05:53:56.786Z,1.28
2023-02-20T05:54:56.666Z,1.29
2023-02-20T05:55:56.648Z,1.26
2023-02-20T05:56:56.664Z,1.36
2023-02-20T05:57:56.639Z,1.67
2023-02-20T05:58:56.619Z,1.74
2023-02-20T05:59:56.600Z,1.75
2023-02-20T06:00:56.598Z,2.18
2023-02-20T06:01:56.583Z,2.32
2023-02-20T06:02:56.568Z,2.61
2023-02-20T06:03:56.599Z,2.58
2023-02-20T06:04:56.622Z,2.63
2023-02-20T06:05:56.584Z,2.76
2023-02-20T06:06:56.589Z,2.79
2023-02-20T06:07:56.518Z,3.10
2023-02-20T06:08:56.506Z,3.30
2023-02-20T06:09:58.181Z,3.31
2023-02-20T06:10:56.489Z,3.52
2023-02-20T06:11:56.547Z,3.78
2023-02-20T06:12:56.480Z,3.89
2023-02-20T06:13:56.459Z,3.92
2023-02-20T06:14:56.464Z,3.95
2023-02-20T06:15:56.486Z,3.92
2023-02-20T06:16:56.423Z,4.11
2023-02-20T06:17:56.424Z,4.02
2023-02-20T06:18:56.383Z,4.07
2023-02-20T06:19:56.395Z,4.10
2023-02-20T06:20:56.404Z,4.14
2023-02-20T06:21:56.373Z,4.06
2023-02-20T06:22:56.355Z,4.10
2023-02-20T06:23:56.346Z,4.14
2023-02-20T06:24:56.332Z,4.10
2023-02-20T06:25:56.324Z,4.13
2023-02-20T06:26:56.368Z,4.21
2023-02-20T06:27:56.292Z,4.24
2023-02-20T06:28:56.320Z,4.24
2023-02-20T06:29:56.293Z,4.25
2023-02-20T06:30:56.256Z,4.25
2023-02-20T06:31:56.371Z,4.20
2023-02-20T06:32:56.237Z,4.24
2023-02-20T06:33:56.239Z,4.13
2023-02-20T06:34:56.251Z,4.07
2023-02-20T06:35:56.222Z,3.86
2023-02-20T06:36:56.236Z,3.68
2023-02-20T06:37:56.200Z,3.41
2023-02-20T06:38:58.113Z,3.41
2023-02-20T06:39:56.176Z,3.19
2023-02-20T06:40:56.204Z,3.17
2023-02-20T06:41:56.161Z,3.13
2023-02-20T06:42:56.210Z,3.10
2023-02-20T06:43:56.135Z,2.95
2023-02-20T06:44:56.150Z,2.79
2023-02-20T06:45:56.112Z,2.79
2023-02-20T06:46:56.196Z,2.69
2023-02-20T06:47:56.100Z,2.68
2023-02-20T06:48:56.127Z,2.68
2023-02-20T06:49:56.200Z,2.74
2023-02-20T06:50:56.222Z,2.56
2023-02-20T06:51:56.243Z,2.58
2023-02-20T06:52:56.296Z,2.56
2023-02-20T06:53:56.051Z,2.55
2023-02-20T06:54:56.028Z,2.66
2023-02-20T06:55:56.027Z,2.61
2023-02-20T06:56:56.017Z,2.71
2023-02-20T06:57:55.991Z,2.69
2023-02-20T06:58:56.071Z,2.77
2023-02-20T06:59:56.188Z,2.86
2023-02-20T07:00:56.278Z,3.07
2023-02-20T07:01:56.025Z,3.26
2023-02-20T07:02:55.946Z,3.54
2023-02-20T07:03:56.018Z,3.77
2023-02-20T07:04:55.927Z,3.96
2023-02-20T07:05:55.904Z,3.95
2023-02-20T07:06:55.921Z,4.10
2023-02-20T07:07:55.888Z,4.31
2023-02-20T07:08:55.893Z,4.49
2023-02-20T07:09:55.862Z,4.75
2023-02-20T07:10:55.898Z,4.87
2023-02-20T07:11:55.904Z,4.94
2023-02-20T07:12:55.862Z,5.08
2023-02-20T07:13:55.850Z,5.33
2023-02-20T07:14:55.794Z,5.38
2023-02-20T07:15:55.816Z,5.59
2023-02-20T07:16:55.833Z,5.84
2023-02-20T07:17:55.791Z,5.99
2023-02-20T07:18:55.830Z,6.25
2023-02-20T07:19:55.768Z,6.45
2023-02-20T07:20:55.769Z,6.78
2023-02-20T07:21:55.754Z,7.00
2023-02-20T07:22:55.756Z,7.16
2023-02-20T07:23:55.765Z,7.54
2023-02-20T07:24:55.706Z,7.74
2023-02-20T07:25:55.728Z,8.04
2023-02-20T07:26:56.786Z,8.25
2023-02-20T07:27:55.674Z,8.45
2023-02-20T07:28:55.657Z,8.49
2023-02-20T07:29:55.640Z,8.18
2023-02-20T07:30:55.640Z,8.17
2023-02-20T07:31:55.807Z,7.99
2023-02-20T07:32:55.617Z,8.00
2023-02-20T07:33:55.599Z,8.09
2023-02-20T07:35:03.986Z,8.31
2023-02-20T07:35:56.583Z,8.45
2023-02-20T07:36:55.611Z,8.43
2023-02-20T07:37:55.555Z,8.32
2023-02-20T07:38:55.570Z,8.40
2023-02-20T07:39:55.536Z,8.46
2023-02-20T07:40:55.539Z,8.68
2023-02-20T07:41:55.528Z,8.88
2023-02-20T07:42:55.519Z,8.88
2023-02-20T07:43:55.529Z,8.88
2023-02-20T07:44:55.495Z,9.12
2023-02-20T07:45:55.551Z,9.26
2023-02-20T07:46:55.489Z,9.65
2023-02-20T07:47:55.453Z,10.11
2023-02-20T07:48:55.442Z,10.02
2023-02-20T07:49:55.444Z,10.04
2023-02-20T07:50:55.425Z,10.52
2023-02-20T07:51:55.453Z,10.51
2023-02-20T07:52:55.499Z,10.06
2023-02-20T07:53:55.390Z,9.88
2023-02-20T07:54:55.376Z,9.78
2023-02-20T07:55:55.393Z,9.85
2023-02-20T07:56:55.346Z,10.02
2023-02-20T07:57:55.341Z,9.98
2023-02-20T07:58:55.340Z,10.06
2023-02-20T07:59:55.352Z,10.07
2023-02-20T08:00:55.379Z,10.13
2023-02-20T08:01:55.410Z,10.10
2023-02-20T08:02:55.300Z,10.16
2023-02-20T08:03:55.292Z,10.32
2023-02-20T08:04:55.289Z,10.84
2023-02-20T08:05:55.544Z,10.70
2023-02-20T08:06:55.276Z,10.86
2023-02-20T08:07:55.237Z,11.03
2023-02-20T08:08:55.257Z,10.95
2023-02-20T08:09:55.230Z,11.13
2023-02-20T08:11:03.503Z,11.26
2023-02-20T08:11:56.242Z,11.57
2023-02-20T08:12:55.223Z,11.87
2023-02-20T08:13:55.317Z,12.11
2023-02-20T08:14:55.237Z,12.03
2023-02-20T08:15:55.197Z,12.23
2023-02-20T08:16:55.148Z,11.70
2023-02-20T08:17:55.173Z,11.51
2023-02-20T08:18:55.152Z,11.49
2023-02-20T08:19:55.101Z,11.13
2023-02-20T08:20:55.083Z,11.45
2023-02-20T08:21:55.096Z,11.64
2023-02-20T08:22:55.214Z,12.15
2023-02-20T08:23:55.095Z,12.05
2023-02-20T08:24:55.044Z,11.63
2023-02-20T08:25:55.025Z,11.84
2023-02-20T08:26:55.918Z,11.66
2023-02-20T08:27:55.022Z,11.90
2023-02-20T08:28:55.039Z,12.08
2023-02-20T08:29:55.001Z,12.52
2023-02-20T08:30:54.997Z,12.55
2023-02-20T08:31:55.082Z,12.58
2023-02-20T08:32:55.121Z,12.74
2023-02-20T08:33:54.952Z,12.63
2023-02-20T08:34:54.968Z,12.85
2023-02-20T08:35:54.942Z,13.27
2023-02-20T08:36:54.909Z,13.66
2023-02-20T08:37:54.962Z,13.79
2023-02-20T08:38:54.905Z,13.54
2023-02-20T08:39:54.894Z,13.79
2023-02-20T08:40:54.890Z,13.94
2023-02-20T08:41:54.877Z,14.21
2023-02-20T08:42:55.021Z,14.38
2023-02-20T08:43:54.880Z,13.98
2023-02-20T08:44:54.823Z,13.96
2023-02-20T08:45:54.860Z,14.29
2023-02-20T08:46:54.820Z,13.81
2023-02-20T08:47:54.809Z,13.62
2023-02-20T08:48:54.873Z,13.31
2023-02-20T08:49:54.776Z,12.92
2023-02-20T08:50:54.772Z,12.62
2023-02-20T08:51:54.808Z,12.13
2023-02-20T08:52:54.763Z,11.85
2023-02-20T08:53:54.738Z,11.84
2023-02-20T08:54:54.750Z,12.37
2023-02-20T08:55:54.749Z,13.13
2023-02-20T08:56:54.711Z,13.54
2023-02-20T08:57:54.739Z,14.09
2023-02-20T08:58:54.672Z,14.48
2023-02-20T08:59:54.670Z,14.91
2023-02-20T09:00:54.841Z,15.23
2023-02-20T09:01:54.639Z,15.62
2023-02-20T09:02:54.818Z,15.58
2023-02-20T09:03:54.657Z,15.01
2023-02-20T09:04:54.626Z,14.82
2023-02-20T09:05:54.597Z,14.45
2023-02-20T09:06:54.589Z,14.27
2023-02-20T09:07:54.603Z,14.35
2023-02-20T09:08:54.594Z,14.29
2023-02-20T09:09:54.627Z,14.41
2023-02-20T09:10:54.607Z,14.36
2023-02-20T09:11:54.536Z,14.46
2023-02-20T09:12:54.560Z,14.20
2023-02-20T09:13:54.569Z,13.62
2023-02-20T09:14:54.492Z,13.06
2023-02-20T09:15:54.500Z,12.92
2023-02-20T09:16:54.504Z,12.74
2023-02-20T09:17:54.489Z,12.54
2023-02-20T09:18:56.397Z,12.40
2023-02-20T09:19:54.588Z,12.18
2023-02-20T09:20:54.500Z,12.31
2023-02-20T09:21:54.503Z,12.56
2023-02-20T09:22:54.449Z,12.38
2023-02-20T09:23:54.409Z,12.46
2023-02-20T09:24:54.418Z,12.77
2023-02-20T09:25:54.383Z,12.84
2023-02-20T09:26:56.380Z,12.77
2023-02-20T09:27:54.449Z,12.91
2023-02-20T09:28:54.402Z,12.74
2023-02-20T09:29:54.365Z,12.73
2023-02-20T09:30:54.325Z,12.61
2023-02-20T09:31:54.384Z,12.55
2023-02-20T09:32:54.357Z,12.87
2023-02-20T09:33:54.327Z,13.41
2023-02-20T09:34:54.396Z,13.65
2023-02-20T09:35:54.274Z,13.69
2023-02-20T09:36:55.533Z,13.62
2023-02-20T09:37:54.413Z,13.61
2023-02-20T09:38:54.241Z,13.66
2023-02-20T09:39:54.252Z,13.54
2023-02-20T09:40:54.237Z,13.83
2023-02-20T09:41:54.200Z,14.11
2023-02-20T09:42:54.220Z,14.35
2023-02-20T09:43:54.180Z,14.60
2023-02-20T09:44:54.190Z,14.86
2023-02-20T09:45:54.169Z,15.35
2023-02-20T09:46:54.193Z,15.20
2023-02-20T09:47:54.257Z,15.04
2023-02-20T09:48:54.162Z,14.75
2023-02-20T09:49:54.116Z,14.69
2023-02-20T09:50:54.191Z,14.42
2023-02-20T09:51:54.097Z,14.05
2023-02-20T09:52:54.110Z,14.09
2023-02-20T09:53:54.091Z,14.39
2023-02-20T09:54:54.076Z,15.16
2023-02-20T09:55:54.163Z,14.97
2023-02-20T09:56:54.036Z,15.01
2023-02-20T09:57:54.064Z,14.75
2023-02-20T09:58:54.026Z,14.35
2023-02-20T09:59:54.006Z,14.38
2023-02-20T10:00:53.985Z,14.54
2023-02-20T10:01:54.001Z,14.83
2023-02-20T10:02:54.159Z,15.28
2023-02-20T10:03:53.960Z,15.89
2023-02-20T10:05:01.156Z,16.51
2023-02-20T10:05:54.938Z,16.22
2023-02-20T10:06:53.934Z,16.37
2023-02-20T10:07:53.929Z,16.75
2023-02-20T10:08:53.915Z,16.42
2023-02-20T10:09:53.924Z,15.98
2023-02-20T10:10:53.925Z,16.10
2023-02-20T10:11:53.959Z,16.37
2023-02-20T10:12:53.930Z,16.34
2023-02-20T10:13:53.856Z,16.32
2023-02-20T10:14:53.851Z,16.50
2023-02-20T10:15:53.822Z,16.34
2023-02-20T10:16:53.894Z,16.34
2023-02-20T10:17:53.818Z,16.67
2023-02-20T10:18:53.783Z,17.25
2023-02-20T10:19:53.791Z,17.46
2023-02-20T10:20:53.803Z,17.21
2023-02-20T10:21:53.754Z,17.36
2023-02-20T10:22:53.820Z,17.77
2023-02-20T10:24:04.911Z,17.94
2023-02-20T10:24:54.734Z,17.98
2023-02-20T10:25:53.718Z,17.77
2023-02-20T10:26:53.740Z,17.46
2023-02-20T10:27:53.709Z,17.02
2023-02-20T10:28:53.702Z,16.62
2023-02-20T10:29:55.163Z,16.34
2023-02-20T10:30:53.729Z,16.22
2023-02-20T10:31:53.808Z,16.29
2023-02-20T10:32:53.683Z,16.42
2023-02-20T10:33:53.629Z,16.06
2023-02-20T10:34:53.627Z,15.71
2023-02-20T10:35:53.611Z,15.99
2023-02-20T10:36:53.603Z,16.14
2023-02-20T10:37:53.657Z,16.37
2023-02-20T10:38:53.611Z,16.47
2023-02-20T10:39:53.567Z,16.40
2023-02-20T10:40:53.553Z,16.29
2023-02-20T10:41:53.573Z,16.18
2023-02-20T10:42:53.595Z,16.03
2023-02-20T10:43:53.614Z,16.27
2023-02-20T10:44:53.562Z,16.51
2023-02-20T10:45:53.573Z,16.55
2023-02-20T10:46:53.524Z,16.01
2023-02-20T10:47:53.540Z,16.07
2023-02-20T10:48:53.471Z,16.23
2023-02-20T10:49:53.472Z,15.98
2023-02-20T10:50:53.463Z,15.96
2023-02-20T10:51:53.450Z,16.01
2023-02-20T10:52:53.453Z,16.14
2023-02-20T10:53:53.424Z,16.47
2023-02-20T10:54:53.439Z,17.15
2023-02-20T10:55:53.405Z,17.36
2023-02-20T10:56:53.418Z,16.87
2023-02-20T10:57:53.390Z,16.92
2023-02-20T10:58:53.393Z,16.70
2023-02-20T10:59:53.389Z,16.27
2023-02-20T11:00:53.354Z,15.95
2023-02-20T11:01:53.418Z,16.01
2023-02-20T11:02:53.355Z,16.34
2023-02-20T11:03:53.329Z,17.28
2023-02-20T11:04:53.344Z,17.80
2023-02-20T11:05:53.307Z,18.17
2023-02-20T11:06:53.285Z,18.53
2023-02-20T11:07:53.317Z,18.69
2023-02-20T11:08:53.291Z,18.72
2023-02-20T11:09:53.250Z,18.86
2023-02-20T11:10:53.262Z,18.79
2023-02-20T11:11:53.235Z,18.62
2023-02-20T11:12:53.261Z,18.11
2023-02-20T11:13:53.217Z,18.35
2023-02-20T11:14:53.185Z,17.76
2023-02-20T11:15:53.279Z,17.84
2023-02-20T11:16:53.185Z,17.83
2023-02-20T11:17:53.173Z,17.74
2023-02-20T11:18:53.136Z,17.27
2023-02-20T11:19:53.206Z,17.30
2023-02-20T11:20:53.112Z,17.58
2023-02-20T11:21:53.165Z,17.87
2023-02-20T11:22:53.159Z,18.46
2023-02-20T11:23:54.034Z,18.35
2023-02-20T11:24:53.099Z,18.19
2023-02-20T11:25:53.117Z,18.44
2023-02-20T11:26:53.094Z,18.69
2023-02-20T11:27:53.072Z,18.64
2023-02-20T11:28:53.030Z,18.54
2023-02-20T11:29:53.043Z,18.69
2023-02-20T11:30:55.273Z,18.76
2023-02-20T11:31:53.145Z,19.10
2023-02-20T11:32:53.000Z,19.05
2023-02-20T11:33:52.989Z,19.02
2023-02-20T11:34:52.962Z,18.66
2023-02-20T11:35:53.006Z,18.14
2023-02-20T11:36:52.942Z,18.39
2023-02-20T11:37:55.458Z,18.68
2023-02-20T11:38:52.947Z,18.46
2023-02-20T11:39:52.986Z,18.14
2023-02-20T11:40:52.918Z,17.76
2023-02-20T11:41:52.911Z,17.71
2023-02-20T11:42:52.938Z,17.55
2023-02-20T11:44:01.356Z,17.77
2023-02-20T11:44:53.877Z,18.44
2023-02-20T11:45:52.849Z,17.84
2023-02-20T11:46:52.877Z,17.57
2023-02-20T11:47:52.874Z,17.40
2023-02-20T11:48:52.878Z,17.86
2023-02-20T11:49:52.813Z,18.01
2023-02-20T11:50:52.829Z,18.20
2023-02-20T11:51:52.852Z,18.25
2023-02-20T11:52:52.811Z,18.39
2023-02-20T11:53:52.754Z,18.38
2023-02-20T11:54:52.747Z,18.46
2023-02-20T11:56:00.121Z,18.51
2023-02-20T11:56:53.714Z,18.57
2023-02-20T11:57:52.738Z,18.79
2023-02-20T11:58:52.773Z,19.13
2023-02-20T11:59:52.697Z,19.12
2023-02-20T12:00:52.693Z,19.27
2023-02-20T12:02:00.956Z,19.35
2023-02-20T12:02:53.783Z,19.76
2023-02-20T12:03:52.669Z,19.75
2023-02-20T12:04:52.650Z,19.46
2023-02-20T12:05:52.712Z,19.42
2023-02-20T12:06:52.608Z,19.47
2023-02-20T12:07:52.712Z,19.39
2023-02-20T12:08:52.596Z,19.78
2023-02-20T12:09:52.596Z,19.79
2023-02-20T12:10:52.575Z,19.57
2023-02-20T12:11:52.593Z,19.49
2023-02-20T12:12:52.595Z,18.90
2023-02-20T12:13:52.533Z,18.38
2023-02-20T12:14:52.551Z,17.86
2023-02-20T12:15:52.589Z,17.47
2023-02-20T12:16:52.669Z,17.60
2023-02-20T12:17:52.515Z,17.71
2023-02-20T12:18:52.476Z,18.26
2023-02-20T12:19:52.474Z,18.79
2023-02-20T12:20:52.471Z,18.97
2023-02-20T12:21:52.478Z,19.06
2023-02-20T12:22:52.553Z,19.12
2023-02-20T12:23:52.463Z,19.32
2023-02-20T12:24:52.429Z,19.13
2023-02-20T12:25:52.643Z,19.38
2023-02-20T12:26:54.192Z,19.13
2023-02-20T12:27:52.416Z,18.99
2023-02-20T12:28:52.396Z,18.84
2023-02-20T12:29:52.360Z,18.53
2023-02-20T12:30:52.368Z,18.32
2023-02-20T12:31:52.453Z,18.10
2023-02-20T12:32:52.362Z,18.28
2023-02-20T12:33:52.333Z,18.26
2023-02-20T12:34:52.347Z,18.13
2023-02-20T12:35:52.314Z,18.41
2023-02-20T12:36:52.315Z,18.64
2023-02-20T12:37:52.306Z,18.86
2023-02-20T12:38:52.263Z,19.12
2023-02-20T12:39:52.264Z,18.96
2023-02-20T12:40:52.239Z,18.91
2023-02-20T12:41:52.242Z,18.91
2023-02-20T12:42:52.249Z,18.91
2023-02-20T12:43:55.676Z,18.84
2023-02-20T12:44:53.195Z,18.36
2023-02-20T12:45:52.188Z,18.09
2023-02-20T12:46:52.271Z,17.86
2023-02-20T12:47:52.183Z,17.55
2023-02-20T12:48:52.197Z,17.07
2023-02-20T12:49:52.142Z,16.99
2023-02-20T12:50:52.144Z,16.90
2023-02-20T12:51:52.125Z,16.80
2023-02-20T12:52:52.131Z,16.78
2023-02-20T12:53:52.114Z,16.73
2023-02-20T12:54:52.118Z,16.95
2023-02-20T12:55:52.101Z,17.30
2023-02-20T12:56:52.091Z,17.28
2023-02-20T12:57:52.133Z,17.22
2023-02-20T12:58:52.051Z,17.17
2023-02-20T12:59:52.057Z,17.22
2023-02-20T13:00:52.064Z,16.92
2023-02-20T13:01:52.032Z,16.99
2023-02-20T13:02:52.042Z,17.30
2023-02-20T13:03:52.041Z,17.51
2023-02-20T13:04:52.025Z,17.66
2023-02-20T13:05:51.978Z,17.71
2023-02-20T13:06:51.972Z,17.77
2023-02-20T13:07:51.974Z,17.95
2023-02-20T13:08:51.949Z,17.76
2023-02-20T13:09:51.938Z,17.71
2023-02-20T13:10:51.946Z,18.35
2023-02-20T13:11:51.919Z,18.04
2023-02-20T13:12:51.934Z,18.14
2023-02-20T13:13:51.894Z,18.20
2023-02-20T13:14:51.883Z,17.98
2023-02-20T13:15:51.877Z,18.36
2023-02-20T13:16:51.892Z,18.93
2023-02-20T13:17:51.874Z,19.01
2023-02-20T13:18:51.871Z,18.34